Time;durP1;ratioP1;P1;durP2;ratioP2;P2;SDS_P1;SDS_P2;PMS_P1;PMS_P2;Temp;Humidity;BMP_temperature;BMP_pressure;BME280_temperature;BME280_humidity;BME280_pressure;Samples;Min_cycle;Max_cycle;Signal;HPM_P1;HPM_P2
2023/06/13 00:02:28;;;;;;;5.70;3.50;;;;;;;7.88;82.45;99165.65;272320;1273;22207;-84
2023/06/13 00:08:32;;;;;;;6.90;3.90;;;;;;;7.87;82.78;99158.62;272333;1264;22363;-84
2023/06/13 00:14:34;;;;;;;13.10;3.70;;;;;;;7.84;83.28;99153.46;270442;1273;22573;-84
2023/06/13 00:20:35;;;;;;;7.50;3.80;;;;;;;7.72;83.43;99150.92;270086;1273;23317;-84
2023/06/13 00:26:37;;;;;;;8.70;5.20;;;;;;;7.57;83.65;99147.19;272419;1273;23559;-84
2023/06/13 00:33:20;;;;;;;8.00;4.40;;;;;;;7.43;83.95;99143.88;272724;1274;22158;-84
2023/06/13 00:40:02;;;;;;;6.00;3.70;;;;;;;7.37;84.30;99140.90;272606;1274;22225;-84
2023/06/13 00:46:04;;;;;;;6.70;3.50;;;;;;;7.30;84.33;99139.70;272373;1272;22198;-86
2023/06/13 00:52:06;;;;;;;9.40;3.90;;;;;;;7.18;84.56;99142.89;272243;1273;22247;-85
2023/06/13 00:58:10;;;;;;;10.90;4.20;;;;;;;7.11;84.97;99142.63;272362;1272;22204;-85
2023/06/13 01:04:27;;;;;;;11.20;4.80;;;;;;;7.08;85.19;99135.63;272389;1272;22241;-85
2023/06/13 01:11:24;;;;;;;6.90;4.30;;;;;;;7.02;85.24;99125.42;272636;1273;22217;-85
2023/06/13 01:17:57;;;;;;;8.80;4.00;;;;;;;6.94;85.74;99122.02;272135;1273;22405;-85
2023/06/13 01:25:21;;;;;;;6.10;2.80;;;;;;;6.93;86.53;99121.13;270982;1273;22408;-85
2023/06/13 01:32:02;;;;;;;8.80;5.30;;;;;;;6.90;86.65;99116.29;270346;1272;22730;-84
2023/06/13 01:38:04;;;;;;;12.30;5.70;;;;;;;6.79;86.62;99116.16;269795;1273;22610;-85
2023/06/13 01:44:06;;;;;;;11.40;7.00;;;;;;;6.73;87.05;99112.02;270509;1273;22237;-85
2023/06/13 01:50:49;;;;;;;12.00;6.80;;;;;;;6.71;87.69;99111.60;272407;1259;22287;-86
2023/06/13 01:57:15;;;;;;;13.80;7.70;;;;;;;6.70;88.16;99113.27;272476;1273;22991;-85
2023/06/13 02:03:57;;;;;;;16.00;7.50;;;;;;;6.72;88.48;99111.91;272385;1264;23455;-86
2023/06/13 02:10:42;;;;;;;7.90;5.60;;;;;;;6.79;89.26;99105.91;270499;1273;22483;-85
2023/06/13 02:17:05;;;;;;;15.20;6.70;;;;;;;6.85;89.35;99103.58;272513;1264;22267;-85
2023/06/13 02:23:07;;;;;;;8.90;5.40;;;;;;;6.87;89.52;99103.70;272474;1273;22671;-86
2023/06/13 02:29:33;;;;;;;9.30;6.00;;;;;;;6.90;89.73;99105.02;272393;1272;22232;-85
2023/06/13 02:35:36;;;;;;;12.50;6.30;;;;;;;6.87;89.38;99104.41;272362;1272;23136;-85
2023/06/13 02:41:58;;;;;;;8.10;5.80;;;;;;;6.79;89.23;99103.81;271099;1262;22628;-85
2023/06/13 02:48:00;;;;;;;9.50;5.20;;;;;;;6.72;89.53;99105.54;271102;1272;22212;-86
2023/06/13 02:54:02;;;;;;;11.40;6.30;;;;;;;6.64;89.40;99102.90;272337;1263;22185;-85
2023/06/13 03:00:07;;;;;;;11.20;5.20;;;;;;;6.52;89.77;99101.64;272439;1273;23227;-85
2023/06/13 03:06:51;;;;;;;8.60;5.80;;;;;;;6.47;89.74;99108.02;272373;1272;22362;-85
2023/06/13 03:13:53;;;;;;;11.50;6.00;;;;;;;6.47;90.33;99112.52;272288;1272;23335;-85
2023/06/13 03:19:55;;;;;;;11.00;6.50;;;;;;;6.50;90.44;99114.23;272320;1263;22192;-85
2023/06/13 03:25:58;;;;;;;8.90;5.50;;;;;;;6.51;90.65;99111.09;272416;1273;22209;-85
2023/06/13 03:32:40;;;;;;;7.90;5.30;;;;;;;6.57;91.25;99105.73;272832;1274;22351;-85
2023/06/13 03:39:03;;;;;;;10.30;6.00;;;;;;;6.68;91.63;99100.39;272239;1273;23974;-85
2023/06/13 03:45:07;;;;;;;11.20;6.30;;;;;;;6.83;91.94;99109.05;272382;1272;22220;-86
2023/06/13 03:51:10;;;;;;;11.50;6.70;;;;;;;6.92;92.11;99111.32;272334;1273;22456;-85
2023/06/13 03:57:12;;;;;;;9.60;6.40;;;;;;;7.04;92.66;99106.27;272603;1262;23561;-87
2023/06/13 04:03:14;;;;;;;11.80;6.90;;;;;;;7.23;93.10;99104.81;272364;1274;22260;-85
2023/06/13 04:09:37;;;;;;;9.90;6.30;;;;;;;7.39;93.24;99106.48;272790;1258;22981;-85
2023/06/13 04:15:41;;;;;;;11.50;7.00;;;;;;;7.58;93.24;99099.48;272652;1273;22190;-85
2023/06/13 04:22:05;;;;;;;13.60;8.20;;;;;;;7.78;93.34;99099.89;272406;1273;22475;-85
2023/06/13 04:28:13;;;;;;;12.80;7.50;;;;;;;7.99;93.63;99098.20;272366;1257;25054;-85
2023/06/13 04:34:55;;;;;;;10.50;6.10;;;;;;;8.22;94.06;99096.86;272403;1272;22618;-84
2023/06/13 04:41:01;;;;;;;8.80;6.20;;;;;;;8.43;94.35;99093.59;272858;1273;22180;-84
2023/06/13 04:47:03;;;;;;;7.80;5.50;;;;;;;8.64;94.68;99089.36;272216;1268;102753;-85
2023/06/13 04:53:11;;;;;;;10.10;6.30;;;;;;;8.85;94.81;99085.65;272342;1262;23504;-84
2023/06/13 04:59:13;;;;;;;12.70;6.10;;;;;;;9.09;94.94;99088.05;272381;1265;22391;-85
2023/06/13 05:05:18;;;;;;;10.20;6.90;;;;;;;9.30;94.53;99088.90;272267;1273;23002;-85
2023/06/13 05:11:20;;;;;;;8.40;6.50;;;;;;;9.49;94.17;99085.71;272431;1273;22859;-84
2023/06/13 05:18:02;;;;;;;9.70;6.70;;;;;;;9.71;94.27;99080.13;272474;1272;22905;-84
2023/06/13 05:24:24;;;;;;;10.00;6.60;;;;;;;10.01;94.04;99078.25;272241;1266;23035;-85
2023/06/13 05:30:51;;;;;;;10.60;6.30;;;;;;;10.27;93.75;99082.31;271550;1272;22558;-84
2023/06/13 05:38:00;;;;;;;12.20;7.00;;;;;;;10.61;93.69;99081.59;272390;1273;22234;-84
2023/06/13 05:44:34;;;;;;;7.70;5.70;;;;;;;10.92;93.44;99080.92;272451;1257;22877;-85
2023/06/13 05:51:03;;;;;;;9.20;5.40;;;;;;;11.17;93.02;99088.31;272145;1262;22195;-85
2023/06/13 05:57:05;;;;;;;7.50;5.30;;;;;;;11.41;92.81;99087.99;272352;1273;22434;-85
2023/06/13 06:03:06;;;;;;;7.40;4.80;;;;;;;11.57;92.34;99085.88;272316;1273;22593;-85
2023/06/13 06:09:09;;;;;;;10.30;5.80;;;;;;;11.74;92.08;99080.87;272242;1273;23269;-84
2023/06/13 06:15:11;;;;;;;10.60;6.30;;;;;;;11.86;91.51;99074.77;272578;1272;22248;-85
2023/06/13 06:21:14;;;;;;;8.20;5.20;;;;;;;12.02;91.61;99077.79;272325;1273;23062;-84
2023/06/13 06:27:16;;;;;;;7.60;4.60;;;;;;;12.25;91.11;99076.59;272241;1264;22632;-84
2023/06/13 06:33:20;;;;;;;9.20;4.90;;;;;;;12.38;90.39;99076.35;272361;1264;22393;-86
2023/06/13 06:39:22;;;;;;;7.10;3.80;;;;;;;12.58;90.17;99069.61;269790;1272;22677;-85
2023/06/13 06:45:24;;;;;;;5.30;3.00;;;;;;;12.87;89.57;99073.02;270393;1268;22475;-85
2023/06/13 06:51:47;;;;;;;11.30;3.60;;;;;;;13.21;88.84;99073.36;272332;1274;23091;-86
2023/06/13 06:57:49;;;;;;;4.30;1.90;;;;;;;13.62;87.96;99067.19;271899;1272;22406;-84
2023/06/13 07:03:50;;;;;;;8.90;3.30;;;;;;;13.87;86.70;99066.80;271241;1262;22302;-84
2023/06/13 07:09:52;;;;;;;3.90;2.70;;;;;;;13.89;85.87;99069.16;272127;1271;23009;-85
2023/06/13 07:16:14;;;;;;;5.70;2.90;;;;;;;14.23;85.80;99066.04;270831;1262;22532;-84
2023/06/13 07:22:17;;;;;;;4.20;2.00;;;;;;;14.42;83.97;99060.73;270660;1265;22549;-85
2023/06/13 07:28:19;;;;;;;5.30;1.70;;;;;;;14.83;84.16;99053.54;269838;1272;23715;-84
2023/06/13 07:34:20;;;;;;;2.80;1.40;;;;;;;14.97;82.49;99053.80;272351;1273;23578;-84
2023/06/13 07:40:23;;;;;;;5.20;1.70;;;;;;;15.26;82.06;99054.95;272402;1273;22578;-86
2023/06/13 07:46:47;;;;;;;3.30;1.60;;;;;;;15.89;80.45;99063.23;269725;1272;25287;-87
2023/06/13 07:52:49;;;;;;;4.70;1.60;;;;;;;15.93;78.63;99056.98;270597;1262;22406;-85
2023/06/13 07:58:51;;;;;;;5.00;1.80;;;;;;;15.73;78.31;99052.50;271933;1273;22284;-86
2023/06/13 08:04:57;;;;;;;2.40;1.30;;;;;;;15.60;77.33;99052.92;272415;1273;22196;-86
2023/06/13 08:10:59;;;;;;;2.00;1.40;;;;;;;15.43;76.85;99051.48;271627;1273;22609;-86
2023/06/13 08:17:01;;;;;;;3.50;1.60;;;;;;;15.69;76.60;99054.73;270031;1274;22549;-85
2023/06/13 08:23:03;;;;;;;2.40;1.40;;;;;;;15.86;75.42;99058.77;269401;1266;22528;-86
2023/06/13 08:29:05;;;;;;;3.20;1.40;;;;;;;16.14;74.22;99065.54;268742;1273;22548;-86
2023/06/13 08:35:10;;;;;;;3.30;1.80;;;;;;;16.31;72.86;99063.61;271755;1274;22472;-87
2023/06/13 08:41:52;;;;;;;2.60;1.20;;;;;;;16.36;71.45;99063.40;271410;1272;22438;-86
2023/06/13 08:48:36;;;;;;;4.00;1.30;;;;;;;16.10;70.61;99065.96;272686;1273;22315;-87
2023/06/13 08:55:00;;;;;;;1.90;1.30;;;;;;;15.87;70.96;99064.05;272255;1272;24376;-87
2023/06/13 09:01:09;;;;;;;1.90;1.30;;;;;;;16.07;70.20;99065.35;271020;1272;22443;-85
2023/06/13 09:07:33;;;;;;;1.30;1.10;;;;;;;16.14;68.00;99067.65;269797;1265;25342;-86
2023/06/13 09:13:35;;;;;;;2.10;0.80;;;;;;;15.93;67.67;99072.11;270957;1275;22159;-86
2023/06/13 09:19:57;;;;;;;2.50;1.40;;;;;;;15.71;67.66;99070.89;272400;1274;22395;-86
2023/06/13 09:26:00;;;;;;;2.10;1.10;;;;;;;15.72;67.85;99072.46;270336;1273;23178;-85
2023/06/13 09:32:03;;;;;;;2.20;1.50;;;;;;;16.02;67.87;99060.81;271796;1262;22419;-85
2023/06/13 09:38:05;;;;;;;2.80;1.20;;;;;;;16.07;67.30;99061.40;270136;1273;22508;-87
2023/06/13 09:44:07;;;;;;;4.20;1.50;;;;;;;16.03;67.31;99057.58;272929;1281;22980;-83
2023/06/13 09:50:08;;;;;;;3.40;1.20;;;;;;;16.00;66.47;99057.30;272043;1273;22213;-86
2023/06/13 09:56:30;;;;;;;2.00;1.40;;;;;;;15.79;66.00;99054.73;272500;1262;23030;-85
2023/06/13 10:02:54;;;;;;;4.00;1.40;;;;;;;15.75;65.89;99050.98;272911;1273;22195;-84
2023/06/13 10:08:56;;;;;;;3.60;1.30;;;;;;;15.73;65.42;99050.05;272468;1274;22473;-84
2023/06/13 10:15:26;;;;;;;4.50;1.40;;;;;;;16.17;64.78;99045.29;271611;1274;22546;-85
2023/06/13 10:21:28;;;;;;;2.70;1.10;;;;;;;16.52;64.53;99038.36;272135;1273;22593;-85
2023/06/13 10:27:30;;;;;;;4.50;1.50;;;;;;;17.04;63.42;99028.92;269770;1274;22190;-86
2023/06/13 10:34:19;;;;;;;2.00;1.00;;;;;;;17.60;62.90;99026.34;271784;1274;22551;-84
2023/06/13 10:40:45;;;;;;;2.00;1.10;;;;;;;17.55;62.27;99027.36;269114;1258;22614;-86
2023/06/13 10:47:08;;;;;;;1.30;1.10;;;;;;;17.62;61.90;99021.80;269350;1266;23296;-84
2023/06/13 10:53:32;;;;;;;3.70;1.30;;;;;;;17.57;61.14;99018.71;271867;1274;22563;-87
2023/06/13 10:59:36;;;;;;;4.70;1.40;;;;;;;17.65;60.84;99010.90;269728;1273;22180;-84
2023/06/13 11:06:24;;;;;;;1.50;1.30;;;;;;;17.78;60.25;99012.66;269253;1273;23347;-86
2023/06/13 11:12:26;;;;;;;4.90;1.20;;;;;;;17.77;60.18;99005.24;271913;1274;22237;-84
2023/06/13 11:18:50;;;;;;;2.20;1.10;;;;;;;18.31;60.14;98999.80;272456;1273;23011;-85
2023/06/13 11:24:56;;;;;;;2.40;1.20;;;;;;;18.22;58.38;99001.63;270146;1272;22725;-83
2023/06/13 11:31:17;;;;;;;2.90;1.40;;;;;;;18.10;58.07;99001.23;271901;1262;22360;-85
2023/06/13 11:37:51;;;;;;;1.90;1.10;;;;;;;17.98;58.60;99001.06;271003;1273;22614;-85
2023/06/13 11:43:53;;;;;;;1.60;1.00;;;;;;;17.82;57.58;98998.58;270183;1274;22702;-85
2023/06/13 11:50:07;;;;;;;2.00;1.00;;;;;;;17.79;57.23;98993.02;269863;1257;22584;-84
2023/06/13 11:56:15;;;;;;;2.50;1.10;;;;;;;17.65;57.50;98990.27;270606;1273;23321;-85
2023/06/13 12:02:18;;;;;;;1.10;0.80;;;;;;;17.83;56.75;98995.34;270684;1273;22528;-85
2023/06/13 12:08:19;;;;;;;2.50;1.00;;;;;;;17.66;56.18;98991.45;269557;1258;22402;-85
2023/06/13 12:14:23;;;;;;;3.70;1.00;;;;;;;17.55;55.78;98986.27;270427;1273;22238;-86
2023/06/13 12:20:35;;;;;;;1.70;1.00;;;;;;;17.50;56.18;98984.67;270185;1273;22812;-85
2023/06/13 12:26:44;;;;;;;1.90;1.20;;;;;;;17.49;56.30;98982.48;269483;1273;23236;-86
2023/06/13 12:32:56;;;;;;;2.50;1.40;;;;;;;17.77;56.34;98981.83;270375;1274;22513;-84
2023/06/13 12:39:01;;;;;;;2.80;1.20;;;;;;;18.06;55.96;98975.04;270455;1261;23115;-87
2023/06/13 12:45:03;;;;;;;1.50;1.40;;;;;;;18.13;55.42;98974.44;271200;1273;22570;-84
2023/06/13 12:51:05;;;;;;;5.60;1.40;;;;;;;17.64;54.32;98979.12;268788;1273;23081;-86
2023/06/13 12:57:08;;;;;;;2.50;1.40;;;;;;;17.37;54.82;98980.68;271165;1270;22548;-87
2023/06/13 13:03:11;;;;;;;3.30;1.40;;;;;;;17.42;54.24;98975.77;271533;1273;22279;-85
2023/06/13 13:09:13;;;;;;;4.40;1.30;;;;;;;17.32;53.96;98962.58;269918;1272;22476;-85
2023/06/13 13:15:15;;;;;;;2.50;0.90;;;;;;;17.17;54.01;98952.70;271641;1273;22978;-85
2023/06/13 13:21:25;;;;;;;3.10;1.10;;;;;;;16.92;54.25;98945.20;271908;1273;22973;-87
2023/06/13 13:27:27;;;;;;;2.60;1.40;;;;;;;16.76;54.38;98952.84;272495;1260;22263;-86
2023/06/13 13:33:53;;;;;;;2.10;1.20;;;;;;;16.51;54.17;98947.83;272734;1273;22205;-84
2023/06/13 13:39:54;;;;;;;3.90;1.60;;;;;;;16.47;54.17;98949.95;272129;1273;22477;-86
2023/06/13 13:45:56;;;;;;;2.70;1.80;;;;;;;16.37;54.14;98947.61;272449;1273;22305;-87
2023/06/13 13:52:27;;;;;;;2.00;1.80;;;;;;;16.29;54.42;98945.95;272560;1264;22217;-85
2023/06/13 13:58:30;;;;;;;2.90;1.40;;;;;;;16.42;54.51;98945.11;272316;1273;22339;-88
2023/06/13 14:04:32;;;;;;;2.30;1.40;;;;;;;16.25;54.09;98949.16;272362;1272;23519;-86
2023/06/13 14:10:49;;;;;;;1.80;1.20;;;;;;;16.14;54.49;98952.69;272353;1272;22361;-86
2023/06/13 14:16:52;;;;;;;3.90;1.50;;;;;;;16.30;54.65;98949.18;271763;1272;23774;-85
2023/06/13 14:22:54;;;;;;;1.40;1.20;;;;;;;16.14;54.71;98953.73;269290;1262;22635;-85
2023/06/13 14:28:55;;;;;;;2.50;1.50;;;;;;;16.23;55.22;98948.41;268884;1273;22545;-87
2023/06/13 14:34:57;;;;;;;2.70;1.40;;;;;;;16.26;55.36;98953.81;271016;1267;23144;-85
2023/06/13 14:41:40;;;;;;;1.60;1.20;;;;;;;15.95;55.49;98955.91;270711;1257;22557;-87
2023/06/13 14:47:56;;;;;;;4.90;1.50;;;;;;;15.92;56.10;98945.77;272393;1273;22310;-86
2023/06/13 14:53:58;;;;;;;1.80;1.50;;;;;;;16.08;55.91;98934.30;272525;1262;23112;-85
2023/06/13 15:00:00;;;;;;;1.60;1.10;;;;;;;16.09;55.99;98934.59;269988;1272;23435;-86
2023/06/13 15:06:02;;;;;;;3.60;1.40;;;;;;;15.98;56.31;98944.66;272095;1263;22223;-85
2023/06/13 15:12:44;;;;;;;2.30;1.90;;;;;;;15.95;56.49;98940.53;272855;1273;22209;-87
2023/06/13 15:19:02;;;;;;;1.70;0.90;;;;;;;16.27;57.04;98937.77;272435;1263;22189;-87
2023/06/13 15:25:05;;;;;;;0.70;0.70;;;;;;;16.39;56.87;98933.05;272282;1273;23421;-87
2023/06/13 15:31:07;;;;;;;0.70;0.70;;;;;;;16.09;56.82;98938.70;272386;1273;22888;-86
2023/06/13 15:37:09;;;;;;;2.70;0.80;;;;;;;15.82;56.95;98933.73;272434;1273;23533;-86
2023/06/13 15:43:31;;;;;;;2.70;1.40;;;;;;;15.84;57.29;98934.19;272598;1273;22218;-85
2023/06/13 15:49:36;;;;;;;1.30;1.00;;;;;;;15.82;57.99;98939.10;272303;1272;22227;-87
2023/06/13 15:56:01;;;;;;;4.00;1.70;;;;;;;15.63;58.74;98937.39;269768;1273;22554;-85
2023/06/13 16:02:03;;;;;;;4.70;1.40;;;;;;;15.51;58.96;98943.04;270550;1273;22559;-87
2023/06/13 16:08:05;;;;;;;4.10;1.40;;;;;;;15.36;58.97;98945.20;270066;1268;23039;-86
2023/06/13 16:14:07;;;;;;;1.60;1.10;;;;;;;15.30;59.49;98948.64;264901;1273;10001501;-87
2023/06/13 16:20:50;;;;;;;1.40;0.90;;;;;;;15.32;59.83;98949.02;272073;1273;22247;-87
2023/06/13 16:28:06;;;;;;;2.10;1.20;;;;;;;15.30;60.42;98950.69;272655;1272;22337;-85
2023/06/13 16:34:30;;;;;;;1.40;0.90;;;;;;;15.33;60.85;98946.16;271888;1272;26660;-86
2023/06/13 16:40:32;;;;;;;4.40;1.70;;;;;;;15.34;61.02;98942.77;270062;1267;22406;-87
2023/06/13 16:47:14;;;;;;;1.40;1.10;;;;;;;15.35;61.30;98942.36;270375;1273;133836;-87
2023/06/13 16:53:58;;;;;;;1.70;1.20;;;;;;;15.29;61.14;98942.73;272730;1273;22995;-88
2023/06/13 17:00:00;;;;;;;3.50;1.00;;;;;;;15.22;61.47;98947.91;271900;1273;23671;-86
2023/06/13 17:06:29;;;;;;;1.60;1.30;;;;;;;15.16;61.84;98947.81;272852;1277;22152;-86
2023/06/13 17:12:56;;;;;;;3.50;1.30;;;;;;;15.06;62.40;98946.16;272817;1273;22258;-86
2023/06/13 17:18:59;;;;;;;1.80;1.20;;;;;;;14.94;63.23;98946.33;272392;1272;22551;-84
2023/06/13 17:25:21;;;;;;;1.70;1.40;;;;;;;14.83;63.79;98948.52;272824;1270;22933;-85
2023/06/13 17:31:23;;;;;;;2.20;1.50;;;;;;;14.67;63.64;98951.70;272378;1266;22317;-86
2023/06/13 17:37:45;;;;;;;4.90;1.50;;;;;;;14.44;64.02;98950.55;272892;1274;22290;-84
2023/06/13 17:43:47;;;;;;;2.20;1.60;;;;;;;14.28;64.67;98947.23;272204;1272;23542;-86
2023/06/13 17:49:49;;;;;;;3.50;1.60;;;;;;;14.15;65.08;98944.59;271367;1272;22875;-86
2023/06/13 17:55:51;;;;;;;2.10;1.70;;;;;;;14.03;65.61;98942.22;272109;1272;22755;-86
2023/06/13 18:01:53;;;;;;;3.40;1.70;;;;;;;13.89;66.10;98942.42;272702;1274;22311;-85
2023/06/13 18:08:16;;;;;;;4.50;2.10;;;;;;;13.77;66.86;98946.93;272422;1272;22342;-86
2023/06/13 18:14:20;;;;;;;3.90;2.40;;;;;;;13.69;67.78;98946.63;272855;1273;22262;-85
2023/06/13 18:20:44;;;;;;;3.90;1.90;;;;;;;13.64;68.67;98951.05;271750;1262;22202;-84
2023/06/13 18:26:46;;;;;;;3.50;2.30;;;;;;;13.57;69.18;98953.10;272575;1272;22385;-86
2023/06/13 18:33:08;;;;;;;5.10;2.40;;;;;;;13.44;69.54;98955.94;272938;1275;22228;-87
2023/06/13 18:39:10;;;;;;;3.00;2.70;;;;;;;13.30;69.90;98958.08;271716;1273;22352;-86
2023/06/13 18:45:12;;;;;;;5.20;3.30;;;;;;;13.17;70.39;98957.52;272448;1271;22253;-86
2023/06/13 18:51:55;;;;;;;3.70;3.20;;;;;;;13.04;71.11;98961.05;272440;1272;22522;-85
2023/06/13 18:58:38;;;;;;;3.30;3.00;;;;;;;12.91;72.01;98964.32;272273;1272;24168;-85
2023/06/13 19:05:04;;;;;;;6.20;3.30;;;;;;;12.80;72.62;98965.86;271744;1273;22264;-85
2023/06/13 19:12:06;;;;;;;4.00;3.40;;;;;;;12.68;73.34;98971.34;272136;1275;22262;-85
2023/06/13 19:18:18;;;;;;;8.20;4.40;;;;;;;12.54;73.97;98969.10;270865;1259;22124;-85
2023/06/13 19:24:21;;;;;;;5.60;3.80;;;;;;;12.43;74.53;98976.90;271998;1275;22371;-85
2023/06/13 19:30:24;;;;;;;4.50;3.90;;;;;;;12.31;75.07;98979.54;272104;1275;22358;-85
2023/06/13 19:36:26;;;;;;;10.30;5.90;;;;;;;12.20;75.63;98979.34;270468;1275;24276;-85
2023/06/13 19:43:08;;;;;;;11.60;6.80;;;;;;;12.09;76.13;98984.77;271708;1273;22240;-85
2023/06/13 19:50:17;;;;;;;10.40;5.90;;;;;;;11.95;76.78;98984.45;272327;1273;23524;-84
2023/06/13 19:56:22;;;;;;;9.00;6.80;;;;;;;11.82;77.12;98985.48;272206;1272;22197;-85
2023/06/13 20:02:26;;;;;;;8.70;6.20;;;;;;;11.70;77.61;98982.67;272407;1272;22217;-85
2023/06/13 20:08:29;;;;;;;8.30;5.10;;;;;;;11.59;78.12;98979.73;270131;1272;23358;-85
2023/06/13 20:14:33;;;;;;;8.60;6.00;;;;;;;11.51;78.96;98981.80;271015;1272;24756;-85
2023/06/13 20:20:55;;;;;;;9.50;6.20;;;;;;;11.41;79.46;98981.80;269629;1267;22255;-86
2023/06/13 20:26:58;;;;;;;9.40;6.10;;;;;;;11.30;80.06;98983.92;269799;1272;22537;-85
2023/06/13 20:33:02;;;;;;;10.90;7.10;;;;;;;11.24;80.97;98981.36;269158;1272;24474;-84
2023/06/13 20:39:05;;;;;;;10.70;6.80;;;;;;;11.18;81.75;98981.94;269621;1273;22525;-86
2023/06/13 20:45:08;;;;;;;11.50;8.30;;;;;;;11.12;82.32;98981.02;270877;1272;22637;-85
2023/06/13 20:51:09;;;;;;;12.90;8.10;;;;;;;11.05;82.80;98978.16;269817;1272;22553;-85
2023/06/13 20:57:11;;;;;;;14.50;8.40;;;;;;;10.98;83.37;98974.89;268745;1272;22574;-84
2023/06/13 21:03:19;;;;;;;13.80;8.20;;;;;;;10.93;83.94;98969.05;268614;1273;22564;-84
2023/06/13 21:09:41;;;;;;;18.20;10.00;;;;;;;10.89;84.40;98976.59;268519;1267;22656;-83
2023/06/13 21:15:48;;;;;;;12.30;8.00;;;;;;;10.83;84.96;98978.83;270945;1272;23557;-85
2023/06/13 21:21:50;;;;;;;13.80;8.40;;;;;;;10.77;85.63;98980.86;271414;1261;22420;-84
2023/06/13 21:27:53;;;;;;;18.80;9.50;;;;;;;10.72;86.13;98980.11;271189;1272;22203;-85
2023/06/13 21:33:55;;;;;;;13.90;8.80;;;;;;;10.67;86.65;98985.77;269709;1260;22636;-84
2023/06/13 21:40:00;;;;;;;13.70;7.70;;;;;;;10.61;87.08;98988.20;269246;1272;23529;-85
2023/06/13 21:46:02;;;;;;;21.50;10.30;;;;;;;10.49;87.14;98990.66;271641;1264;22521;-84
2023/06/13 21:52:04;;;;;;;16.10;9.60;;;;;;;10.41;87.72;98996.04;272055;1273;22566;-85
2023/06/13 21:58:26;;;;;;;16.40;9.70;;;;;;;10.32;87.87;99000.37;270491;1272;22212;-84
2023/06/13 22:04:29;;;;;;;12.60;7.80;;;;;;;10.21;88.47;98998.83;272901;1275;22194;-85
2023/06/13 22:10:33;;;;;;;16.80;8.80;;;;;;;10.06;88.60;98997.45;271052;1273;22196;-84
2023/06/13 22:16:38;;;;;;;12.10;7.80;;;;;;;9.91;88.73;98998.01;272525;1273;23137;-86
2023/06/13 22:23:20;;;;;;;15.40;9.60;;;;;;;9.75;89.13;98987.64;272162;1265;22197;-85
2023/06/13 22:29:24;;;;;;;14.20;10.30;;;;;;;9.63;89.54;98981.14;272505;1261;22184;-86
2023/06/13 22:35:26;;;;;;;15.00;9.90;;;;;;;9.51;89.76;98977.84;269860;1259;22655;-84
2023/06/13 22:41:27;;;;;;;12.50;8.50;;;;;;;9.41;90.29;98974.50;269539;1261;22291;-85
2023/06/13 22:47:58;;;;;;;16.70;10.90;;;;;;;9.36;90.47;98970.26;270377;1264;23529;-85
2023/06/13 22:54:00;;;;;;;16.30;9.00;;;;;;;9.30;90.91;98967.77;268910;1273;22347;-85
2023/06/13 23:00:10;;;;;;;18.90;10.80;;;;;;;9.27;91.14;98968.25;272480;1273;22208;-85
2023/06/13 23:06:17;;;;;;;18.60;10.30;;;;;;;9.20;91.33;98968.77;270498;1261;22550;-85
2023/06/13 23:12:22;;;;;;;18.20;10.20;;;;;;;9.18;91.93;98967.96;270175;1274;23437;-84
2023/06/13 23:18:46;;;;;;;14.50;8.60;;;;;;;9.20;92.14;98965.50;269515;1273;22556;-86
2023/06/13 23:24:53;;;;;;;13.80;8.70;;;;;;;9.23;92.91;98966.09;268741;1265;24996;-85
2023/06/13 23:31:16;;;;;;;;;;;;;;;9.31;93.46;98965.74;268863;1260;22531;-84
2023/06/13 23:37:20;;;;;;;18.40;10.10;;;;;;;9.39;94.22;98962.91;269365;1272;23171;-84
2023/06/13 23:43:22;;;;;;;14.80;9.20;;;;;;;9.52;95.13;98963.27;268738;1272;22568;-84
2023/06/13 23:49:24;;;;;;;12.10;8.40;;;;;;;9.67;95.44;98961.84;268985;1266;22553;-85
2023/06/13 23:56:10;;;;;;;14.40;8.90;;;;;;;9.79;95.67;98961.21;269447;1272;22716;-86
